createdAt,value
2023-04-27T00:01:23.971Z,7.10
2023-04-27T00:04:25.769Z,7.10
2023-04-27T00:07:28.209Z,6.90
2023-04-27T00:10:29.904Z,8.80
2023-04-27T00:13:31.503Z,7.10
2023-04-27T00:16:33.121Z,7.00
2023-04-27T00:19:35.027Z,6.90
2023-04-27T00:22:36.587Z,7.10
2023-04-27T00:25:38.317Z,7.10
2023-04-27T00:28:39.938Z,7.10
2023-04-27T00:31:41.636Z,7.00
2023-04-27T00:34:43.228Z,8.40
2023-04-27T00:37:44.791Z,6.50
2023-04-27T00:40:47.743Z,6.30
2023-04-27T00:43:49.287Z,6.90
2023-04-27T00:46:53.722Z,6.50
2023-04-27T00:49:56.398Z,6.40
2023-04-27T00:52:58.106Z,6.60
2023-04-27T00:55:59.726Z,6.40
2023-04-27T00:59:01.303Z,6.30
2023-04-27T01:02:03.276Z,6.30
2023-04-27T01:05:05.146Z,6.20
2023-04-27T01:08:07.094Z,6.50
2023-04-27T01:11:08.645Z,4.10
2023-04-27T01:14:10.486Z,6.00
2023-04-27T01:17:12.092Z,6.00
2023-04-27T01:20:14.757Z,5.80
2023-04-27T01:23:17.503Z,6.20
2023-04-27T01:26:19.339Z,5.80
2023-04-27T01:29:21.411Z,5.90
2023-04-27T01:32:23.040Z,5.60
2023-04-27T01:35:25.690Z,5.70
2023-04-27T01:38:29.318Z,5.50
2023-04-27T01:41:31.284Z,5.90
2023-04-27T01:44:33.150Z,5.80
2023-04-27T01:47:34.887Z,5.70
2023-04-27T01:50:36.443Z,5.30
2023-04-27T01:53:38.010Z,5.80
2023-04-27T01:56:39.594Z,5.90
2023-04-27T01:59:41.147Z,5.50
2023-04-27T02:02:42.901Z,6.10
2023-04-27T02:05:44.582Z,5.70
2023-04-27T02:08:46.175Z,5.70
2023-04-27T02:11:47.724Z,5.80
2023-04-27T02:14:49.290Z,6.00
2023-04-27T02:17:50.948Z,7.00
2023-04-27T02:20:52.648Z,6.30
2023-04-27T02:23:54.248Z,5.90
2023-04-27T02:26:55.889Z,5.90
2023-04-27T02:29:57.486Z,5.70
2023-04-27T02:33:00.809Z,5.90
2023-04-27T02:36:04.129Z,6.30
2023-04-27T02:39:05.852Z,6.30
2023-04-27T02:42:07.390Z,6.20
2023-04-27T02:45:09.216Z,6.00
2023-04-27T02:48:10.967Z,5.90
2023-04-27T02:51:12.586Z,5.80
2023-04-27T02:54:14.149Z,5.90
2023-04-27T02:57:15.883Z,5.90
2023-04-27T03:00:18.814Z,6.20
2023-04-27T03:03:20.617Z,6.00
2023-04-27T03:06:22.309Z,5.80
2023-04-27T03:09:24.317Z,5.90
2023-04-27T03:12:25.953Z,5.70
2023-04-27T03:15:27.525Z,5.70
2023-04-27T03:18:29.135Z,5.80
2023-04-27T03:21:31.726Z,5.60
2023-04-27T03:24:33.349Z,5.70
2023-04-27T03:27:35.033Z,6.00
2023-04-27T03:30:39.354Z,5.50
2023-04-27T03:33:41.308Z,5.50
2023-04-27T03:36:43.357Z,5.90
2023-04-27T03:39:45.122Z,5.60
2023-04-27T03:42:46.718Z,5.60
2023-04-27T03:45:48.461Z,5.50
2023-04-27T03:48:50.075Z,5.30
2023-04-27T03:51:51.835Z,5.70
2023-04-27T03:54:53.396Z,5.90
2023-04-27T03:57:54.998Z,5.60
2023-04-27T04:00:57.213Z,5.30
2023-04-27T04:03:59.073Z,5.90
2023-04-27T04:07:00.732Z,5.60
2023-04-27T04:10:02.522Z,5.80
2023-04-27T04:13:04.088Z,5.90
2023-04-27T04:16:07.946Z,5.70
2023-04-27T04:19:09.708Z,5.90
2023-04-27T04:22:11.874Z,5.80
2023-04-27T04:25:13.860Z,5.60
2023-04-27T04:28:15.590Z,5.40
2023-04-27T04:31:18.180Z,5.70
2023-04-27T04:34:19.980Z,5.70
2023-04-27T04:37:21.694Z,5.80
2023-04-27T04:40:23.456Z,5.60
2023-04-27T04:43:25.067Z,5.70
2023-04-27T04:46:26.775Z,5.60
2023-04-27T04:49:28.380Z,5.50
2023-04-27T04:52:29.951Z,5.70
2023-04-27T04:55:31.511Z,5.50
2023-04-27T04:58:33.169Z,5.70
2023-04-27T05:01:34.761Z,5.70
2023-04-27T05:04:36.366Z,5.60
2023-04-27T05:07:38.028Z,5.80
2023-04-27T05:10:39.560Z,5.80
2023-04-27T05:13:41.222Z,5.60
2023-04-27T05:16:42.845Z,5.90
2023-04-27T05:19:44.951Z,5.80
2023-04-27T05:22:46.502Z,6.20
2023-04-27T05:25:48.043Z,6.10
2023-04-27T05:28:49.772Z,6.30
2023-04-27T05:31:51.356Z,6.10
2023-04-27T05:34:52.977Z,6.10
2023-04-27T05:37:54.590Z,6.50
2023-04-27T05:40:59.454Z,6.20
2023-04-27T05:44:01.082Z,6.20
2023-04-27T05:47:02.752Z,6.00
2023-04-27T05:50:04.646Z,6.30
2023-04-27T05:53:06.971Z,6.60
2023-04-27T05:56:08.773Z,6.60
2023-04-27T05:59:10.550Z,6.60
2023-04-27T06:02:12.280Z,6.70
2023-04-27T06:05:14.294Z,6.80
2023-04-27T06:08:16.034Z,7.00
2023-04-27T06:11:17.950Z,6.90
2023-04-27T06:14:19.499Z,6.80
2023-04-27T06:17:21.881Z,6.70
2023-04-27T06:20:23.593Z,7.20
2023-04-27T06:23:25.364Z,7.60
2023-04-27T06:26:27.432Z,7.50
2023-04-27T06:29:28.993Z,7.60
2023-04-27T06:32:30.892Z,7.70
2023-04-27T06:35:32.465Z,7.60
2023-04-27T06:38:34.066Z,7.70
2023-04-27T06:41:35.701Z,8.00
2023-04-27T06:44:37.650Z,7.60
2023-04-27T06:47:39.227Z,8.20
2023-04-27T06:50:41.061Z,9.20
2023-04-27T06:53:42.650Z,10.40
2023-04-27T06:56:47.331Z,8.30
2023-04-27T06:59:49.046Z,8.30
2023-04-27T07:02:51.532Z,8.80
2023-04-27T07:05:53.334Z,8.60
2023-04-27T07:08:55.266Z,8.60
2023-04-27T07:11:58.750Z,8.60
2023-04-27T07:15:00.405Z,9.00
2023-04-27T07:18:02.055Z,9.20
2023-04-27T07:24:04.780Z,9.40
2023-04-27T07:27:06.326Z,9.00
2023-04-27T07:30:10.057Z,9.30
2023-04-27T07:33:11.688Z,9.40
2023-04-27T07:36:13.384Z,9.40
2023-04-27T07:39:15.221Z,9.70
2023-04-27T07:42:17.042Z,9.70
2023-04-27T07:45:18.849Z,9.60
2023-04-27T07:48:20.546Z,9.60
2023-04-27T07:51:22.229Z,10.90
2023-04-27T07:54:24.092Z,9.90
2023-04-27T07:57:25.934Z,9.90
2023-04-27T08:00:27.719Z,10.00
2023-04-27T08:03:29.751Z,10.00
2023-04-27T08:06:31.864Z,10.60
2023-04-27T08:09:33.790Z,10.10
2023-04-27T08:12:35.693Z,10.10
2023-04-27T08:15:37.466Z,10.20
2023-04-27T08:18:39.006Z,9.90
2023-04-27T08:21:40.662Z,10.80
2023-04-27T08:24:42.325Z,10.80
2023-04-27T08:27:43.880Z,10.50
2023-04-27T08:30:46.219Z,10.50
2023-04-27T08:33:47.915Z,10.60
2023-04-27T08:36:49.513Z,10.80
2023-04-27T08:39:51.086Z,11.00
2023-04-27T08:43:00.319Z,11.20
2023-04-27T08:46:02.611Z,11.20
2023-04-27T08:49:04.408Z,11.10
2023-04-27T08:52:14.451Z,11.00
2023-04-27T08:55:16.841Z,11.60
2023-04-27T08:58:18.527Z,11.50
2023-04-27T09:01:20.990Z,11.40
2023-04-27T09:04:22.767Z,12.00
2023-04-27T09:07:25.725Z,11.30
2023-04-27T09:10:29.678Z,11.90
2023-04-27T09:13:39.142Z,11.90
2023-04-27T09:16:40.937Z,11.60
2023-04-27T09:19:42.589Z,12.00
2023-04-27T09:22:49.381Z,12.00
2023-04-27T09:25:50.990Z,12.40
2023-04-27T09:28:54.540Z,11.70
2023-04-27T09:31:56.192Z,12.30
2023-04-27T09:34:57.796Z,12.20
2023-04-27T09:38:00.650Z,13.10
2023-04-27T09:41:02.494Z,12.40
2023-04-27T09:44:04.657Z,13.60
2023-04-27T09:47:07.023Z,12.80
2023-04-27T09:50:11.483Z,12.60
2023-04-27T09:53:15.682Z,12.60
2023-04-27T09:56:23.169Z,12.80
2023-04-27T09:59:40.752Z,13.30
2023-04-27T10:03:22.831Z,13.00
2023-04-27T10:06:57.639Z,12.60
2023-04-27T10:10:02.738Z,13.10
2023-04-27T10:13:04.341Z,14.70
2023-04-27T10:16:16.720Z,12.90
2023-04-27T10:19:18.890Z,14.50
2023-04-27T10:22:20.941Z,13.20
2023-04-27T10:25:23.471Z,15.30
2023-04-27T10:28:25.354Z,13.40
2023-04-27T10:31:30.600Z,13.30
2023-04-27T10:34:36.946Z,13.60
2023-04-27T10:37:42.938Z,13.70
2023-04-27T10:40:46.390Z,13.40
2023-04-27T10:43:48.202Z,14.50
2023-04-27T10:46:51.257Z,13.50
2023-04-27T10:49:54.640Z,13.90
2023-04-27T10:53:04.390Z,14.80
2023-04-27T10:56:07.048Z,13.70
2023-04-27T10:59:09.388Z,13.90
2023-04-27T11:02:12.660Z,13.30
2023-04-27T11:05:19.076Z,15.80
2023-04-27T11:08:21.350Z,13.70
2023-04-27T11:11:24.207Z,15.20
2023-04-27T11:14:25.840Z,15.80
2023-04-27T11:17:32.087Z,14.20
2023-04-27T11:20:33.660Z,14.40
2023-04-27T11:23:39.517Z,15.60
2023-04-27T11:26:41.311Z,14.70
2023-04-27T11:29:42.873Z,14.50
2023-04-27T11:32:44.496Z,16.10
2023-04-27T11:35:46.073Z,14.50
2023-04-27T11:38:48.287Z,14.50
2023-04-27T11:41:49.948Z,14.70
2023-04-27T11:44:57.149Z,14.70
2023-04-27T11:47:59.564Z,15.40
2023-04-27T11:51:01.483Z,14.80
2023-04-27T11:54:04.303Z,14.70
2023-04-27T11:57:06.953Z,15.20
2023-04-27T12:00:10.798Z,16.30
2023-04-27T12:03:12.830Z,14.60
2023-04-27T12:06:31.664Z,15.00
2023-04-27T12:09:34.232Z,15.00
2023-04-27T12:12:36.334Z,16.40
2023-04-27T12:15:38.677Z,16.70
2023-04-27T12:18:40.331Z,14.90
2023-04-27T12:21:42.646Z,15.00
2023-04-27T12:24:44.212Z,15.00
2023-04-27T12:27:47.843Z,14.80
2023-04-27T12:30:49.779Z,15.30
2023-04-27T12:33:51.868Z,15.10
2023-04-27T12:36:53.448Z,15.10
2023-04-27T12:39:55.161Z,15.20
2023-04-27T12:42:57.959Z,14.80
2023-04-27T12:46:01.290Z,15.50
2023-04-27T12:49:02.919Z,15.40
2023-04-27T12:52:04.804Z,15.40
2023-04-27T12:55:10.924Z,15.90
2023-04-27T12:58:16.899Z,15.70
2023-04-27T13:01:19.531Z,16.00
2023-04-27T13:04:22.424Z,16.80
2023-04-27T13:07:24.534Z,16.40
2023-04-27T13:10:26.206Z,16.60
2023-04-27T13:13:27.754Z,17.90
2023-04-27T13:16:29.352Z,15.90
2023-04-27T13:19:31.517Z,15.90
2023-04-27T13:22:33.123Z,16.20
2023-04-27T13:25:35.084Z,15.60
2023-04-27T13:28:36.729Z,15.90
2023-04-27T13:31:38.694Z,16.20
2023-04-27T13:34:40.317Z,15.70
2023-04-27T13:37:42.244Z,15.80
2023-04-27T13:40:43.898Z,15.90
2023-04-27T13:43:45.524Z,16.50
2023-04-27T13:46:47.169Z,16.90
2023-04-27T13:49:48.734Z,16.60
2023-04-27T13:52:50.336Z,16.40
2023-04-27T13:55:56.744Z,18.80
2023-04-27T13:58:58.337Z,19.10
2023-04-27T14:01:59.976Z,17.50
2023-04-27T14:05:01.626Z,18.10
2023-04-27T14:08:03.442Z,19.70
2023-04-27T14:11:06.452Z,18.20
2023-04-27T14:14:08.106Z,18.20
2023-04-27T14:17:09.728Z,18.60
2023-04-27T14:20:11.558Z,20.20
2023-04-27T14:23:13.248Z,18.60
2023-04-27T14:26:14.799Z,18.70
2023-04-27T14:29:16.790Z,20.90
2023-04-27T14:32:18.592Z,19.00
2023-04-27T14:35:21.121Z,20.40
2023-04-27T14:38:22.715Z,18.60
2023-04-27T14:41:24.298Z,18.60
2023-04-27T14:44:26.088Z,18.80
2023-04-27T14:47:27.750Z,20.10
2023-04-27T14:50:29.449Z,18.70
2023-04-27T14:53:31.340Z,18.90
2023-04-27T14:56:33.624Z,18.90
2023-04-27T14:59:35.317Z,18.90
2023-04-27T15:02:38.000Z,18.80
2023-04-27T15:05:39.793Z,19.00
2023-04-27T15:08:41.559Z,19.00
2023-04-27T15:11:43.176Z,18.90
2023-04-27T15:14:44.769Z,18.90
2023-04-27T15:17:46.429Z,20.30
2023-04-27T15:20:52.587Z,18.60
2023-04-27T15:23:54.111Z,18.90
2023-04-27T15:26:55.813Z,18.90
2023-04-27T15:29:58.385Z,17.50
2023-04-27T15:33:00.260Z,19.10
2023-04-27T15:36:01.989Z,17.40
2023-04-27T15:39:03.924Z,17.40
2023-04-27T15:42:05.915Z,18.30
2023-04-27T15:45:10.007Z,17.70
2023-04-27T15:48:12.174Z,16.90
2023-04-27T15:51:13.805Z,16.60
2023-04-27T15:54:15.428Z,16.70
2023-04-27T15:57:18.196Z,16.60
2023-04-27T16:00:22.065Z,16.60
2023-04-27T16:03:23.743Z,16.20
2023-04-27T16:06:36.562Z,16.40
2023-04-27T16:09:38.428Z,16.30
2023-04-27T16:12:40.370Z,15.60
2023-04-27T16:15:43.067Z,18.10
2023-04-27T16:18:44.970Z,16.70
2023-04-27T16:21:47.374Z,16.00
2023-04-27T16:24:49.073Z,15.90
2023-04-27T16:27:50.899Z,16.00
2023-04-27T16:30:52.796Z,15.90
2023-04-27T16:33:54.497Z,14.90
2023-04-27T16:36:56.255Z,16.60
2023-04-27T16:40:05.666Z,15.40
2023-04-27T16:43:07.336Z,15.70
2023-04-27T16:46:10.722Z,16.60
2023-04-27T16:49:12.669Z,15.30
2023-04-27T16:52:14.572Z,16.80
2023-04-27T16:55:16.306Z,15.40
2023-04-27T16:58:17.990Z,15.00
2023-04-27T17:01:19.717Z,14.60
2023-04-27T17:04:21.327Z,16.80
2023-04-27T17:07:23.067Z,15.90
2023-04-27T17:10:24.842Z,14.90
2023-04-27T17:13:26.434Z,14.90
2023-04-27T17:16:28.167Z,16.30
2023-04-27T17:19:30.819Z,16.40
2023-04-27T17:22:32.912Z,14.90
2023-04-27T17:25:34.508Z,14.80
2023-04-27T17:28:36.224Z,14.70
2023-04-27T17:31:39.606Z,14.60
2023-04-27T17:34:42.976Z,14.50
2023-04-27T17:37:44.707Z,14.10
2023-04-27T17:40:46.902Z,14.20
2023-04-27T17:43:49.855Z,14.30
2023-04-27T17:46:51.872Z,14.40
2023-04-27T17:49:53.454Z,14.20
2023-04-27T17:52:55.160Z,14.00
2023-04-27T17:55:56.721Z,14.00
2023-04-27T17:58:58.297Z,13.90
2023-04-27T18:01:59.867Z,14.00
2023-04-27T18:05:01.517Z,13.70
2023-04-27T18:08:03.236Z,13.20
2023-04-27T18:11:06.517Z,13.40
2023-04-27T18:14:08.142Z,13.40
2023-04-27T18:17:09.786Z,13.50
2023-04-27T18:20:11.995Z,13.50
2023-04-27T18:23:14.622Z,13.60
2023-04-27T18:26:16.499Z,13.10
2023-04-27T18:29:18.063Z,12.60
2023-04-27T18:32:19.618Z,13.70
2023-04-27T18:35:21.199Z,13.20
2023-04-27T18:38:22.762Z,13.00
2023-04-27T18:41:24.752Z,13.10
2023-04-27T18:44:27.179Z,12.90
2023-04-27T18:47:28.895Z,13.50
2023-04-27T18:50:30.471Z,12.60
2023-04-27T18:53:32.051Z,13.00
2023-04-27T18:56:34.836Z,12.80
2023-04-27T18:59:38.864Z,12.70
2023-04-27T19:02:40.633Z,12.60
2023-04-27T19:05:45.554Z,13.00
2023-04-27T19:08:47.163Z,12.90
2023-04-27T19:11:56.129Z,14.30
2023-04-27T19:15:04.675Z,12.80
2023-04-27T19:18:11.402Z,12.60
2023-04-27T19:21:13.595Z,12.70
2023-04-27T19:24:15.402Z,12.50
2023-04-27T19:27:17.025Z,12.80
2023-04-27T19:30:18.701Z,13.70
2023-04-27T19:33:21.353Z,12.60
2023-04-27T19:36:23.163Z,12.30
2023-04-27T19:39:24.821Z,13.60
2023-04-27T19:42:26.957Z,12.70
2023-04-27T19:45:28.555Z,12.60
2023-04-27T19:48:30.277Z,12.50
2023-04-27T19:51:32.119Z,12.20
2023-04-27T19:54:35.797Z,14.20
2023-04-27T19:57:37.412Z,13.30
2023-04-27T20:00:38.981Z,12.40
2023-04-27T20:03:40.859Z,12.10
2023-04-27T20:06:43.263Z,12.20
2023-04-27T20:09:44.900Z,12.00
2023-04-27T20:12:56.024Z,12.30
2023-04-27T20:15:59.090Z,12.50
2023-04-27T20:19:00.790Z,12.50
2023-04-27T20:22:03.005Z,12.20
2023-04-27T20:25:07.670Z,12.30
2023-04-27T20:28:09.230Z,12.40
2023-04-27T20:31:10.956Z,12.40
2023-04-27T20:34:12.875Z,12.10
2023-04-27T20:37:16.786Z,12.00
2023-04-27T20:40:18.806Z,12.30
2023-04-27T20:43:21.100Z,12.00
2023-04-27T20:46:22.693Z,12.10
2023-04-27T20:49:34.490Z,11.90
2023-04-27T20:52:36.976Z,12.00
2023-04-27T20:55:38.694Z,12.30
2023-04-27T20:58:40.568Z,11.90
2023-04-27T21:01:42.141Z,11.40
2023-04-27T21:04:43.927Z,12.30
2023-04-27T21:07:45.745Z,12.10
2023-04-27T21:10:47.390Z,12.10
2023-04-27T21:13:49.060Z,12.30
2023-04-27T21:16:50.964Z,12.00
2023-04-27T21:19:52.687Z,12.10
2023-04-27T21:22:54.373Z,11.90
2023-04-27T21:25:56.082Z,12.20
2023-04-27T21:28:57.901Z,11.90
2023-04-27T21:31:59.458Z,11.90
2023-04-27T21:35:01.067Z,11.90
2023-04-27T21:38:02.694Z,13.40
2023-04-27T21:41:04.755Z,11.80
2023-04-27T21:44:06.407Z,13.70
2023-04-27T21:47:08.024Z,11.90
2023-04-27T21:50:09.850Z,12.30
2023-04-27T21:53:11.502Z,11.80
2023-04-27T21:56:13.087Z,12.40
2023-04-27T21:59:14.726Z,11.60
2023-04-27T22:02:16.416Z,12.00
2023-04-27T22:05:20.905Z,11.40
2023-04-27T22:08:23.325Z,11.60
2023-04-27T22:11:25.261Z,11.80
2023-04-27T22:14:26.845Z,11.60
2023-04-27T22:17:28.426Z,12.00
2023-04-27T22:20:30.060Z,11.30
2023-04-27T22:23:31.630Z,12.10
2023-04-27T22:26:33.284Z,11.50
2023-04-27T22:29:34.838Z,13.80
2023-04-27T22:32:36.491Z,11.60
2023-04-27T22:35:38.185Z,11.50
2023-04-27T22:38:41.342Z,11.50
2023-04-27T22:41:43.347Z,11.90
2023-04-27T22:44:45.499Z,11.70
2023-04-27T22:47:47.208Z,11.80
2023-04-27T22:50:49.111Z,11.70
2023-04-27T22:53:50.689Z,12.50
2023-04-27T22:56:52.444Z,11.50
2023-04-27T22:59:54.056Z,12.70
2023-04-27T23:02:55.816Z,11.50
2023-04-27T23:05:57.641Z,11.40
2023-04-27T23:08:59.200Z,11.40
2023-04-27T23:12:00.965Z,11.60
2023-04-27T23:15:02.824Z,11.40
2023-04-27T23:18:04.401Z,11.30
2023-04-27T23:21:06.177Z,13.30
2023-04-27T23:24:07.820Z,11.40
2023-04-27T23:27:09.382Z,11.90
2023-04-27T23:30:11.531Z,12.90
2023-04-27T23:33:13.055Z,11.40
2023-04-27T23:36:14.727Z,11.30
2023-04-27T23:39:16.297Z,11.60
2023-04-27T23:42:17.915Z,11.60
2023-04-27T23:45:20.135Z,11.40
2023-04-27T23:48:21.784Z,11.20
2023-04-27T23:51:23.871Z,11.60
2023-04-27T23:54:26.039Z,11.40
2023-04-27T23:57:27.664Z,11.10
